Time;durP1;ratioP1;P1;durP2;ratioP2;P2;SDS_P1;SDS_P2;PMS_P1;PMS_P2;Temp;Humidity;BMP_temperature;BMP_pressure;BME280_temperature;BME280_humidity;BME280_pressure;Samples;Min_cycle;Max_cycle;Signal;HPM_P1;HPM_P2
2023/01/09 00:04:50;;;;;;;4.70;2.28;;;7.80;99.90;;;;;;12572779;28;20135;-84
2023/01/09 00:10:52;;;;;;;3.53;1.65;;;7.80;99.90;;;;;;12581805;28;20509;-84
2023/01/09 00:16:54;;;;;;;2.97;1.88;;;7.80;99.90;;;;;;12582946;28;20585;-84
2023/01/09 00:22:56;;;;;;;5.03;1.85;;;7.90;99.90;;;;;;12583061;28;20048;-84
2023/01/09 00:28:58;;;;;;;5.95;2.28;;;7.90;99.90;;;;;;12580874;28;20409;-84
2023/01/09 00:34:59;;;;;;;5.47;2.20;;;8.00;99.90;;;;;;12580517;28;20060;-84
2023/01/09 00:41:08;;;;;;;4.97;2.20;;;8.10;99.90;;;;;;12581621;28;20557;-84
2023/01/09 00:47:19;;;;;;;4.60;2.60;;;8.10;99.90;;;;;;12584282;28;20429;-85
2023/01/09 00:53:24;;;;;;;5.25;2.13;;;8.20;99.90;;;;;;12571132;28;20107;-84
2023/01/09 00:59:27;;;;;;;3.67;2.20;;;8.20;99.90;;;;;;12561576;28;20412;-84
2023/01/09 01:11:49;;;;;;;3.38;1.90;;;8.00;99.90;;;;;;12569687;28;20041;-85
2023/01/09 01:17:51;;;;;;;4.28;2.15;;;7.80;99.90;;;;;;12586863;28;20052;-84
2023/01/09 01:23:52;;;;;;;3.30;2.20;;;7.80;99.90;;;;;;12575394;28;20397;-84
2023/01/09 01:29:55;;;;;;;7.88;2.28;;;7.80;99.90;;;;;;12570024;28;20449;-85
2023/01/09 01:36:06;;;;;;;5.95;1.85;;;7.70;99.90;;;;;;12573150;28;20040;-85
2023/01/09 01:42:11;;;;;;;2.42;1.65;;;7.80;99.90;;;;;;12563236;28;20426;-85
2023/01/09 01:48:20;;;;;;;4.82;1.90;;;7.80;99.90;;;;;;12564763;28;20128;-84
2023/01/09 01:54:25;;;;;;;2.85;1.60;;;7.80;99.90;;;;;;12579238;28;20067;-85
2023/01/09 02:00:32;;;;;;;2.85;1.20;;;7.70;99.90;;;;;;12585060;28;20052;-86
2023/01/09 02:06:35;;;;;;;2.08;1.20;;;7.60;99.90;;;;;;12585366;28;20059;-86
2023/01/09 02:12:37;;;;;;;1.60;0.70;;;7.50;99.90;;;;;;12589242;28;20045;-86
2023/01/09 02:18:50;;;;;;;1.50;0.50;;;7.40;99.90;;;;;;12585220;28;20052;-86
2023/01/09 02:25:11;;;;;;;0.50;0.40;;;7.20;99.90;;;;;;12564189;28;20118;-86
2023/01/09 02:31:24;;;;;;;0.65;0.32;;;7.10;99.90;;;;;;12596810;28;20097;-86
2023/01/09 02:37:46;;;;;;;0.75;0.30;;;6.90;99.90;;;;;;12579455;28;20515;-87
2023/01/09 02:44:01;;;;;;;0.25;0.20;;;6.80;99.90;;;;;;12572890;28;20048;-86
2023/01/09 02:50:08;;;;;;;0.55;0.30;;;6.80;99.90;;;;;;12576371;28;20060;-86
2023/01/09 02:56:19;;;;;;;2.03;0.35;;;6.90;99.90;;;;;;12588190;28;20045;-86
2023/01/09 03:02:36;;;;;;;0.88;0.30;;;6.80;99.90;;;;;;12566079;28;20040;-86
2023/01/09 03:08:52;;;;;;;1.05;0.32;;;6.80;99.90;;;;;;12578852;28;20068;-86
2023/01/09 03:14:57;;;;;;;0.63;0.30;;;6.80;99.90;;;;;;12575745;28;20051;-86
2023/01/09 03:20:59;;;;;;;0.60;0.40;;;6.70;99.90;;;;;;12565205;28;20047;-86
2023/01/09 03:27:01;;;;;;;0.30;0.20;;;6.60;99.90;;;;;;12584128;28;20045;-86
2023/01/09 03:33:03;;;;;;;0.55;0.20;;;6.60;99.90;;;;;;12582535;28;20044;-86
2023/01/09 03:39:05;;;;;;;3.33;0.30;;;6.60;99.90;;;;;;12569584;28;20086;-86
2023/01/09 03:45:07;;;;;;;1.55;0.35;;;6.60;99.90;;;;;;12573863;28;20091;-86
2023/01/09 03:51:09;;;;;;;0.55;0.30;;;6.60;99.90;;;;;;12583777;28;20508;-86
2023/01/09 03:57:11;;;;;;;3.13;0.45;;;6.60;99.90;;;;;;12582326;28;20049;-86
2023/01/09 04:03:13;;;;;;;1.52;0.50;;;6.60;99.90;;;;;;12572462;28;20043;-86
2023/01/09 04:09:14;;;;;;;1.55;0.60;;;6.60;99.90;;;;;;12585165;28;20052;-85
2023/01/09 04:15:16;;;;;;;2.35;1.30;;;6.60;99.90;;;;;;12583257;28;20048;-85
2023/01/09 04:21:18;;;;;;;2.53;1.63;;;6.60;99.90;;;;;;12584937;28;20110;-85
2023/01/09 04:27:20;;;;;;;3.88;2.20;;;6.60;99.90;;;;;;12583195;28;20101;-85
2023/01/09 04:33:21;;;;;;;2.80;2.22;;;6.60;99.90;;;;;;12562187;28;20057;-85
2023/01/09 04:39:23;;;;;;;6.03;2.50;;;6.60;99.90;;;;;;12582907;28;20056;-86
2023/01/09 04:45:25;;;;;;;3.38;2.58;;;6.60;99.90;;;;;;12582322;28;20417;-85
2023/01/09 04:51:27;;;;;;;5.00;3.50;;;6.60;99.90;;;;;;12584117;28;20052;-85
2023/01/09 04:57:28;;;;;;;6.13;3.67;;;6.60;99.90;;;;;;12584034;28;20614;-85
2023/01/09 05:03:30;;;;;;;5.28;3.88;;;6.50;99.90;;;;;;12588026;28;20041;-85
2023/01/09 05:09:32;;;;;;;7.63;5.38;;;6.50;99.90;;;;;;12573907;28;20052;-85
2023/01/09 05:15:34;;;;;;;7.90;5.85;;;6.40;99.90;;;;;;12569804;28;20044;-85
2023/01/09 05:21:36;;;;;;;9.90;6.65;;;6.40;99.90;;;;;;12582348;28;20062;-85
2023/01/09 05:27:38;;;;;;;11.77;6.50;;;6.40;99.90;;;;;;12595594;28;20098;-85
2023/01/09 05:33:39;;;;;;;7.50;5.05;;;6.20;99.90;;;;;;12574164;28;20625;-85
2023/01/09 05:39:41;;;;;;;9.18;4.90;;;6.10;99.90;;;;;;12589491;28;20045;-85
2023/01/09 05:45:43;;;;;;;8.52;5.45;;;6.10;99.90;;;;;;12582026;28;20061;-85
2023/01/09 05:51:45;;;;;;;9.38;5.60;;;6.10;99.90;;;;;;12592989;28;20048;-85
2023/01/09 05:57:47;;;;;;;11.00;5.30;;;6.00;99.90;;;;;;12593801;28;20040;-85
2023/01/09 06:03:48;;;;;;;11.57;5.28;;;5.90;99.90;;;;;;12591406;28;20075;-85
2023/01/09 06:09:50;;;;;;;10.32;5.93;;;5.80;99.90;;;;;;12578217;28;20313;-85
2023/01/09 06:15:52;;;;;;;11.43;6.47;;;5.90;99.90;;;;;;12590912;28;20051;-85
2023/01/09 06:21:54;;;;;;;12.63;7.53;;;6.00;99.90;;;;;;12575244;28;20081;-85
2023/01/09 06:27:56;;;;;;;13.10;7.38;;;6.00;99.90;;;;;;12586831;28;20049;-85
2023/01/09 06:33:57;;;;;;;15.15;8.45;;;6.10;99.90;;;;;;12567285;28;20597;-85
2023/01/09 06:39:59;;;;;;;12.77;8.90;;;6.10;99.90;;;;;;12591623;28;20133;-85
2023/01/09 06:46:01;;;;;;;15.45;9.63;;;6.00;99.90;;;;;;12563953;28;20424;-85
2023/01/09 06:52:06;;;;;;;17.30;9.70;;;6.10;99.90;;;;;;12576090;28;20071;-85
2023/01/09 06:58:07;;;;;;;14.63;9.13;;;6.10;99.90;;;;;;12581457;28;20041;-85
2023/01/09 07:04:09;;;;;;;16.20;10.55;;;6.10;99.90;;;;;;12581199;28;20052;-85
2023/01/09 07:10:12;;;;;;;17.52;10.60;;;6.10;99.90;;;;;;12587456;28;20439;-85
2023/01/09 07:16:14;;;;;;;17.52;10.02;;;6.10;99.90;;;;;;12574653;28;20134;-86
2023/01/09 07:22:16;;;;;;;16.30;9.05;;;6.20;99.90;;;;;;12573850;28;20042;-85
2023/01/09 07:28:18;;;;;;;16.25;7.88;;;6.20;99.90;;;;;;12591082;28;20048;-86
2023/01/09 07:34:20;;;;;;;15.95;7.57;;;6.20;99.90;;;;;;12571384;28;20054;-86
2023/01/09 07:40:21;;;;;;;10.88;5.72;;;6.20;99.90;;;;;;12573161;28;20044;-86
2023/01/09 07:46:23;;;;;;;13.18;4.65;;;6.20;99.90;;;;;;12589633;28;20094;-86
2023/01/09 07:52:26;;;;;;;9.23;3.70;;;6.10;99.90;;;;;;12576643;28;20045;-86
2023/01/09 07:58:28;;;;;;;11.50;3.88;;;6.20;99.90;;;;;;12572207;28;20063;-86
2023/01/09 08:04:30;;;;;;;9.95;3.50;;;6.20;99.90;;;;;;12569760;28;20090;-86
2023/01/09 08:10:32;;;;;;;5.32;2.92;;;6.20;99.90;;;;;;12571290;28;20131;-86
2023/01/09 08:16:34;;;;;;;7.13;3.10;;;6.20;99.90;;;;;;12571437;28;20036;-86
2023/01/09 08:22:36;;;;;;;9.57;2.95;;;6.20;99.90;;;;;;12580756;28;20040;-86
2023/01/09 08:28:37;;;;;;;6.65;2.55;;;6.10;99.90;;;;;;12584106;28;20037;-86
2023/01/09 08:34:39;;;;;;;7.82;2.63;;;6.10;99.90;;;;;;12577572;28;20045;-86
2023/01/09 08:40:41;;;;;;;11.75;2.95;;;6.10;99.90;;;;;;12556205;28;20044;-86
2023/01/09 08:53:03;;;;;;;6.30;2.50;;;6.20;99.90;;;;;;12583788;28;20494;-86
2023/01/09 08:59:05;;;;;;;6.57;3.00;;;6.20;99.90;;;;;;12586817;28;20040;-86
2023/01/09 09:05:07;;;;;;;7.07;3.05;;;6.20;99.90;;;;;;12567050;28;20569;-86
2023/01/09 09:11:10;;;;;;;7.18;2.47;;;6.20;99.90;;;;;;12575617;28;20072;-86
2023/01/09 09:17:12;;;;;;;10.70;3.15;;;6.10;99.90;;;;;;12563984;28;20051;-86
2023/01/09 09:23:14;;;;;;;2.95;1.55;;;6.10;99.90;;;;;;12580699;28;20523;-86
2023/01/09 09:29:15;;;;;;;7.45;2.60;;;6.10;99.90;;;;;;12566868;28;20059;-85
2023/01/09 09:35:19;;;;;;;7.40;1.70;;;6.20;99.90;;;;;;12568674;28;20060;-86
2023/01/09 09:48:33;;;;;;;5.00;1.25;;;6.20;99.90;;;;;;12587825;28;20056;-86
2023/01/09 09:54:46;;;;;;;3.03;1.23;;;6.30;99.90;;;;;;12574573;28;20044;-86
2023/01/09 10:00:52;;;;;;;4.65;1.00;;;6.30;99.90;;;;;;12566988;28;20044;-86
2023/01/09 10:06:59;;;;;;;3.28;0.88;;;6.50;99.90;;;;;;12587492;28;20052;-86
2023/01/09 10:19:38;;;;;;;2.97;0.85;;;6.70;99.90;;;;;;12589493;28;20045;-86
2023/01/09 10:26:05;;;;;;;3.30;0.85;;;6.80;99.90;;;;;;12573208;28;20045;-86
2023/01/09 10:32:37;;;;;;;4.10;0.90;;;6.70;99.90;;;;;;12575417;28;20132;-86
2023/01/09 10:38:44;;;;;;;3.72;1.08;;;6.80;99.90;;;;;;12571959;28;20041;-86
2023/01/09 10:44:52;;;;;;;5.70;0.70;;;6.90;99.90;;;;;;12583040;28;20507;-86
2023/01/09 10:50:55;;;;;;;2.50;0.82;;;7.00;99.90;;;;;;12584995;28;20515;-86
2023/01/09 10:57:13;;;;;;;3.03;1.00;;;7.00;99.90;;;;;;12596877;28;20052;-86
2023/01/09 11:03:18;;;;;;;5.43;0.77;;;7.10;99.90;;;;;;12562471;28;20109;-87
2023/01/09 11:09:20;;;;;;;4.28;0.93;;;7.20;99.90;;;;;;12594318;28;20033;-87
2023/01/09 11:15:30;;;;;;;2.97;0.70;;;7.40;99.90;;;;;;12582395;28;20055;-86
2023/01/09 11:21:34;;;;;;;3.67;0.77;;;7.40;99.90;;;;;;12586113;28;20036;-86
2023/01/09 11:27:36;;;;;;;6.43;0.85;;;7.40;99.90;;;;;;12594574;28;20044;-87
2023/01/09 11:33:47;;;;;;;4.07;1.00;;;7.40;99.90;;;;;;12576524;28;20058;-87
2023/01/09 11:39:50;;;;;;;6.05;1.20;;;7.40;99.90;;;;;;12582106;28;20078;-86
2023/01/09 11:45:56;;;;;;;5.60;0.90;;;7.40;99.90;;;;;;12561477;28;20122;-86
2023/01/09 11:52:19;;;;;;;2.42;0.68;;;7.40;99.90;;;;;;12590726;28;20075;-86
2023/01/09 11:58:21;;;;;;;2.75;1.00;;;7.20;99.90;;;;;;12554743;28;20052;-86
2023/01/09 12:04:27;;;;;;;2.03;0.80;;;7.20;99.90;;;;;;12586900;28;20052;-86
2023/01/09 12:10:51;;;;;;;2.30;0.82;;;7.20;99.90;;;;;;12589811;28;20128;-85
2023/01/09 12:17:23;;;;;;;3.80;1.02;;;7.20;99.90;;;;;;12572129;28;20177;-86
2023/01/09 12:23:45;;;;;;;3.35;1.10;;;7.20;99.90;;;;;;12536109;28;20060;-86
2023/01/09 12:30:14;;;;;;;2.45;1.20;;;7.20;99.90;;;;;;12559447;28;20048;-86
2023/01/09 12:36:21;;;;;;;7.82;1.30;;;7.10;99.90;;;;;;12585911;28;20048;-86
2023/01/09 12:42:23;;;;;;;4.85;1.13;;;7.10;99.90;;;;;;12569252;28;20049;-86
2023/01/09 12:48:43;;;;;;;4.22;1.30;;;7.00;99.90;;;;;;12583552;28;20052;-86
2023/01/09 12:55:00;;;;;;;3.63;1.30;;;7.00;99.90;;;;;;12562655;28;20047;-86
2023/01/09 13:01:11;;;;;;;4.80;1.20;;;7.10;99.90;;;;;;12580277;28;20044;-86
2023/01/09 13:07:20;;;;;;;3.03;1.23;;;7.20;99.90;;;;;;12575142;28;20082;-85
2023/01/09 13:13:46;;;;;;;3.60;1.50;;;7.20;99.90;;;;;;12601971;28;20044;-86
2023/01/09 13:19:48;;;;;;;4.43;1.45;;;7.40;99.90;;;;;;12597710;28;20158;-86
2023/01/09 13:25:56;;;;;;;3.65;1.73;;;7.40;99.90;;;;;;12601667;28;20128;-86
2023/01/09 13:32:10;;;;;;;4.15;1.67;;;7.40;99.90;;;;;;12630402;28;20057;-86
2023/01/09 13:38:18;;;;;;;3.60;1.90;;;7.50;99.90;;;;;;12647585;28;20044;-86
2023/01/09 13:44:24;;;;;;;3.47;1.70;;;7.50;99.90;;;;;;12644015;28;20048;-87
2023/01/09 13:50:26;;;;;;;3.40;2.10;;;7.50;99.90;;;;;;12623254;28;20039;-86
2023/01/09 13:56:28;;;;;;;3.95;1.60;;;7.60;99.90;;;;;;12636357;28;20047;-86
2023/01/09 14:02:32;;;;;;;4.82;1.50;;;7.70;99.90;;;;;;12644268;28;20066;-87
2023/01/09 14:08:35;;;;;;;;;;;7.90;99.90;;;;;;12635719;28;20078;-86
2023/01/09 14:14:42;;;;;;;5.57;1.40;;;8.00;99.90;;;;;;12652434;28;19944;-86
2023/01/09 14:20:53;;;;;;;4.68;1.50;;;7.90;99.90;;;;;;12624413;28;20037;-86
2023/01/09 14:27:00;;;;;;;3.65;1.10;;;7.90;99.90;;;;;;12645788;28;20060;-87
2023/01/09 14:33:03;;;;;;;5.80;1.38;;;7.80;99.90;;;;;;12608067;28;20060;-86
2023/01/09 14:39:08;;;;;;;4.57;1.08;;;7.80;99.90;;;;;;12561048;28;20045;-86
2023/01/09 14:45:18;;;;;;;4.15;1.00;;;7.70;99.90;;;;;;12552350;28;20071;-86
2023/01/09 14:51:22;;;;;;;4.82;1.60;;;7.60;99.90;;;;;;12541520;28;20123;-86
2023/01/09 14:57:29;;;;;;;;;;;7.40;99.90;;;;;;12547816;28;20053;-86
2023/01/09 15:03:57;;;;;;;2.78;0.90;;;7.00;99.90;;;;;;12550922;28;19921;-86
2023/01/09 15:10:02;;;;;;;2.83;1.38;;;6.80;99.90;;;;;;12552096;28;20105;-86
2023/01/09 15:16:05;;;;;;;3.58;1.40;;;6.70;99.90;;;;;;12549187;28;20473;-88
2023/01/09 15:22:26;;;;;;;4.43;1.88;;;6.60;99.90;;;;;;12549086;28;20052;-86
2023/01/09 15:28:33;;;;;;;3.40;1.50;;;6.50;99.90;;;;;;12528552;28;20114;-86
2023/01/09 15:34:36;;;;;;;3.63;1.83;;;6.40;99.90;;;;;;12579356;28;20056;-86
2023/01/09 15:40:37;;;;;;;4.50;1.92;;;6.30;99.90;;;;;;12588750;28;20040;-86
2023/01/09 15:46:39;;;;;;;6.20;2.72;;;6.30;99.90;;;;;;12593575;28;20060;-86
2023/01/09 15:52:42;;;;;;;4.68;2.88;;;6.40;99.90;;;;;;12592529;28;20123;-86
2023/01/09 15:58:46;;;;;;;7.35;2.97;;;6.60;99.90;;;;;;12589912;28;20898;-87
2023/01/09 16:04:51;;;;;;;5.88;2.85;;;6.60;99.90;;;;;;12589853;28;20507;-85
2023/01/09 16:10:57;;;;;;;6.00;2.42;;;6.70;99.90;;;;;;12591412;28;20044;-86
2023/01/09 16:17:06;;;;;;;3.40;1.33;;;6.70;99.90;;;;;;12563586;28;20488;-86
2023/01/09 16:23:31;;;;;;;3.05;1.30;;;6.50;99.90;;;;;;12581863;28;20127;-86
2023/01/09 16:29:43;;;;;;;3.92;1.27;;;6.00;99.90;;;;;;12560472;28;20457;-86
2023/01/09 16:35:45;;;;;;;4.28;1.55;;;5.90;99.90;;;;;;12588253;28;20101;-86
2023/01/09 16:48:12;;;;;;;2.42;1.33;;;5.80;99.90;;;;;;12580743;28;20049;-85
2023/01/09 16:54:15;;;;;;;4.50;2.00;;;5.80;99.90;;;;;;12576907;28;20048;-86
2023/01/09 17:00:19;;;;;;;6.07;3.00;;;5.90;99.90;;;;;;12568519;28;20120;-86
2023/01/09 17:06:29;;;;;;;7.03;3.67;;;6.00;99.90;;;;;;12589635;28;20401;-86
2023/01/09 17:12:31;;;;;;;8.15;4.95;;;6.20;99.90;;;;;;12568164;28;20048;-86
2023/01/09 17:18:33;;;;;;;10.30;5.03;;;6.20;99.90;;;;;;12565197;28;20079;-86
2023/01/09 17:30:56;;;;;;;11.45;6.10;;;6.20;99.90;;;;;;12582891;28;20056;-86
2023/01/09 17:36:58;;;;;;;9.50;5.65;;;6.20;99.90;;;;;;12565967;28;20049;-86
2023/01/09 17:43:02;;;;;;;13.13;5.65;;;6.30;99.90;;;;;;12578051;28;20051;-86
2023/01/09 17:49:05;;;;;;;8.38;5.15;;;6.40;99.90;;;;;;12564046;28;20128;-85
2023/01/09 17:55:07;;;;;;;14.48;5.95;;;6.40;99.90;;;;;;12581636;28;20048;-85
2023/01/09 18:01:09;;;;;;;9.50;5.80;;;6.40;99.90;;;;;;12566084;28;20036;-85
2023/01/09 18:07:14;;;;;;;13.05;6.30;;;6.40;99.90;;;;;;12576123;28;20088;-85
2023/01/09 18:13:16;;;;;;;12.30;6.50;;;6.30;99.90;;;;;;12572324;28;20060;-85
2023/01/09 18:19:17;;;;;;;12.57;6.72;;;6.40;99.90;;;;;;12589091;28;20052;-86
2023/01/09 18:25:19;;;;;;;15.32;5.50;;;6.40;99.90;;;;;;12579797;28;20101;-85
2023/01/09 18:31:23;;;;;;;12.95;6.35;;;6.40;99.90;;;;;;12590630;28;20420;-85
2023/01/09 18:37:25;;;;;;;8.80;5.15;;;6.40;99.90;;;;;;12581314;28;20424;-86
2023/01/09 18:43:27;;;;;;;7.80;5.13;;;6.30;99.90;;;;;;12590837;28;20040;-85
2023/01/09 18:49:29;;;;;;;7.90;4.93;;;6.30;99.90;;;;;;12588815;28;20062;-85
2023/01/09 18:55:31;;;;;;;9.35;5.32;;;6.20;99.90;;;;;;12588598;28;20037;-85
2023/01/09 19:01:32;;;;;;;11.85;6.05;;;6.10;99.90;;;;;;12585409;28;20045;-85
2023/01/09 19:07:34;;;;;;;12.73;6.25;;;6.10;99.90;;;;;;12579821;28;20060;-85
2023/01/09 19:13:37;;;;;;;13.77;6.40;;;6.10;99.90;;;;;;12571191;28;20053;-86
2023/01/09 19:19:39;;;;;;;12.40;6.18;;;6.00;99.90;;;;;;12579455;28;20545;-86
2023/01/09 19:25:40;;;;;;;11.55;6.45;;;5.90;99.90;;;;;;12571208;28;20052;-86
2023/01/09 19:31:47;;;;;;;12.93;6.90;;;5.70;99.90;;;;;;12588251;28;20070;-85
2023/01/09 19:37:49;;;;;;;12.10;7.13;;;5.70;99.90;;;;;;12584257;28;20044;-86
2023/01/09 19:43:51;;;;;;;13.43;7.13;;;5.60;99.90;;;;;;12584925;28;20052;-85
2023/01/09 19:49:54;;;;;;;17.23;8.63;;;5.50;99.90;;;;;;12568208;28;20408;-86
2023/01/09 19:56:16;;;;;;;12.38;7.93;;;5.40;99.90;;;;;;12575406;28;20036;-86
2023/01/09 20:02:17;;;;;;;16.33;7.88;;;5.50;99.90;;;;;;12573631;28;20056;-86
2023/01/09 20:08:19;;;;;;;16.15;9.75;;;5.50;99.90;;;;;;12570512;28;20408;-86
2023/01/09 20:14:21;;;;;;;21.58;10.07;;;5.60;99.90;;;;;;12566349;28;20048;-86
2023/01/09 20:20:23;;;;;;;21.02;9.43;;;5.70;99.90;;;;;;12583512;28;20051;-86
2023/01/09 20:26:26;;;;;;;19.60;9.55;;;5.80;99.90;;;;;;12567202;28;20057;-86
2023/01/09 20:32:28;;;;;;;18.52;9.68;;;5.80;99.90;;;;;;12581516;28;20063;-85
2023/01/09 20:38:31;;;;;;;19.08;9.40;;;5.80;99.90;;;;;;12587947;28;20074;-86
2023/01/09 20:44:33;;;;;;;22.42;9.60;;;5.80;99.90;;;;;;12554724;28;20041;-85
2023/01/09 20:50:34;;;;;;;19.75;9.32;;;5.80;99.90;;;;;;12582866;28;20106;-86
2023/01/09 20:56:36;;;;;;;21.85;10.63;;;5.80;99.90;;;;;;12582969;28;20048;-86
2023/01/09 21:02:38;;;;;;;23.35;10.05;;;5.80;99.90;;;;;;12559038;28;20052;-85
2023/01/09 21:08:42;;;;;;;17.30;9.75;;;5.70;99.90;;;;;;12575603;28;20087;-86
2023/01/09 21:14:44;;;;;;;23.23;10.20;;;5.60;99.90;;;;;;12577293;28;20409;-86
2023/01/09 21:20:45;;;;;;;21.35;10.07;;;5.60;99.90;;;;;;12581268;28;20037;-86
2023/01/09 21:26:47;;;;;;;20.75;10.73;;;5.70;99.90;;;;;;12581787;28;20056;-85
2023/01/09 21:32:49;;;;;;;21.75;10.98;;;5.60;99.90;;;;;;12585190;28;20068;-86
2023/01/09 21:38:52;;;;;;;22.45;10.50;;;5.70;99.90;;;;;;12589345;28;20040;-86
2023/01/09 21:51:15;;;;;;;21.08;10.43;;;5.80;99.90;;;;;;12581378;28;20056;-85
2023/01/09 21:57:17;;;;;;;20.58;9.80;;;5.80;99.90;;;;;;12593026;28;20056;-85
2023/01/09 22:03:20;;;;;;;22.63;10.93;;;5.80;99.90;;;;;;12579745;28;20404;-86
2023/01/09 22:09:22;;;;;;;24.35;10.90;;;5.80;99.90;;;;;;12571822;28;20052;-85
2023/01/09 22:15:23;;;;;;;30.75;12.07;;;5.90;99.90;;;;;;12543220;28;20090;-86
2023/01/09 22:21:25;;;;;;;21.88;10.80;;;5.80;99.90;;;;;;12572492;28;20040;-85
2023/01/09 22:27:27;;;;;;;21.02;10.15;;;5.90;99.90;;;;;;12561119;28;20086;-86
2023/01/09 22:33:29;;;;;;;15.52;9.07;;;5.90;99.90;;;;;;12573317;28;20527;-86
2023/01/09 22:39:31;;;;;;;18.63;9.27;;;5.90;99.90;;;;;;12589389;28;20089;-86
2023/01/09 22:45:33;;;;;;;15.63;9.40;;;5.90;99.90;;;;;;12577105;28;20500;-86
2023/01/09 22:51:34;;;;;;;13.70;8.38;;;5.90;99.90;;;;;;12579842;28;20045;-85
2023/01/09 22:57:36;;;;;;;15.50;8.82;;;5.90;99.90;;;;;;12587484;28;20052;-86
2023/01/09 23:03:38;;;;;;;18.25;9.48;;;5.90;99.90;;;;;;12574954;28;20043;-86
2023/01/09 23:09:40;;;;;;;16.67;9.88;;;5.90;99.90;;;;;;12564516;28;20471;-86
2023/01/09 23:15:42;;;;;;;13.30;8.60;;;6.00;99.90;;;;;;12568230;28;20044;-85
2023/01/09 23:21:44;;;;;;;16.58;9.10;;;6.00;99.90;;;;;;12569627;28;20044;-85
2023/01/09 23:27:46;;;;;;;21.10;9.18;;;6.00;99.90;;;;;;12562431;28;20411;-86
2023/01/09 23:33:48;;;;;;;16.63;8.80;;;6.00;99.90;;;;;;12569089;28;20098;-86
2023/01/09 23:39:50;;;;;;;15.45;9.20;;;6.00;99.90;;;;;;12569113;28;20052;-85
2023/01/09 23:45:52;;;;;;;14.77;9.07;;;6.00;99.90;;;;;;12562931;28;20150;-85
2023/01/09 23:51:55;;;;;;;20.33;9.35;;;6.00;99.90;;;;;;12574487;28;20102;-86
2023/01/09 23:57:57;;;;;;;21.67;9.75;;;5.90;99.90;;;;;;12568808;28;20048;-86
